Kartaly, Russia
Current Conditions -  °F | °C
As of 5:00 AM on Friday 28 Nov 2014 (Local Time) from USCM Reporting Station
Scattered Clouds Scattered Clouds  
Wind Chill:   Ceiling: Unl
Heat Index:   Visibility: 5mi
Dew Point:   Wind: 0mph
Humidity: 85%   Direction: NA
Pressure: 30.53"   Gusts: NA
Location:  53.05°N, 60.67°E
Report Text: USCM 272300Z 00000MPS 8000 SCT100 M15/M17 Q1034 NOSIG 19090060RMK QFE737
Loading
Personal Weather Stations






























Interactive Weather Map New forecast layout! Learn more

10-Day Weather Forecast

Advertisements
Track Severe Weather on mobile